sensor_id;sensor_type;location;lat;lon;timestamp;P1;durP1;ratioP1;P2;durP2;ratioP2
65387;SDS011;51992;53.528;49.474;2022-10-04T00:01:08;18.92;;;1.08;;
65387;SDS011;51992;53.528;49.474;2022-10-04T00:03:42;5.47;;;1.30;;
65387;SDS011;51992;53.528;49.474;2022-10-04T00:06:16;5.57;;;1.15;;
65387;SDS011;51992;53.528;49.474;2022-10-04T00:11:13;0.98;;;0.80;;
65387;SDS011;51992;53.528;49.474;2022-10-04T00:13:44;2.60;;;1.17;;
65387;SDS011;51992;53.528;49.474;2022-10-04T00:16:17;6.18;;;1.20;;
65387;SDS011;51992;53.528;49.474;2022-10-04T00:18:44;7.30;;;1.60;;
65387;SDS011;51992;53.528;49.474;2022-10-04T00:21:10;5.25;;;1.15;;
65387;SDS011;51992;53.528;49.474;2022-10-04T00:31:12;3.30;;;1.02;;
65387;SDS011;51992;53.528;49.474;2022-10-04T00:33:43;5.38;;;1.25;;
65387;SDS011;51992;53.528;49.474;2022-10-04T00:41:36;5.20;;;1.33;;
65387;SDS011;51992;53.528;49.474;2022-10-04T00:44:04;4.35;;;1.08;;
65387;SDS011;51992;53.528;49.474;2022-10-04T00:46:33;5.28;;;0.98;;
65387;SDS011;51992;53.528;49.474;2022-10-04T00:49:01;2.75;;;0.90;;
65387;SDS011;51992;53.528;49.474;2022-10-04T00:51:31;3.53;;;1.20;;
65387;SDS011;51992;53.528;49.474;2022-10-04T00:54:12;4.00;;;1.00;;
65387;SDS011;51992;53.528;49.474;2022-10-04T00:56:46;8.52;;;1.20;;
65387;SDS011;51992;53.528;49.474;2022-10-04T01:02:14;2.13;;;0.70;;
65387;SDS011;51992;53.528;49.474;2022-10-04T01:04:52;2.88;;;0.80;;
65387;SDS011;51992;53.528;49.474;2022-10-04T01:07:24;2.85;;;0.98;;
65387;SDS011;51992;53.528;49.474;2022-10-04T01:09:52;4.03;;;1.08;;
65387;SDS011;51992;53.528;49.474;2022-10-04T01:12:42;5.32;;;1.20;;
65387;SDS011;51992;53.528;49.474;2022-10-04T01:15:13;4.50;;;1.15;;
65387;SDS011;51992;53.528;49.474;2022-10-04T01:17:40;5.00;;;1.02;;
65387;SDS011;51992;53.528;49.474;2022-10-04T01:20:29;5.82;;;1.27;;
65387;SDS011;51992;53.528;49.474;2022-10-04T01:22:55;3.75;;;1.13;;
65387;SDS011;51992;53.528;49.474;2022-10-04T01:28:23;3.40;;;1.40;;
65387;SDS011;51992;53.528;49.474;2022-10-04T01:30:49;3.47;;;1.13;;
65387;SDS011;51992;53.528;49.474;2022-10-04T01:33:15;6.47;;;0.98;;
65387;SDS011;51992;53.528;49.474;2022-10-04T01:35:41;2.25;;;0.85;;
65387;SDS011;51992;53.528;49.474;2022-10-04T01:38:07;3.00;;;0.80;;
65387;SDS011;51992;53.528;49.474;2022-10-04T01:40:37;2.20;;;1.05;;
65387;SDS011;51992;53.528;49.474;2022-10-04T01:43:08;1.80;;;0.90;;
65387;SDS011;51992;53.528;49.474;2022-10-04T01:45:47;3.97;;;0.95;;
65387;SDS011;51992;53.528;49.474;2022-10-04T01:48:16;3.72;;;0.93;;
65387;SDS011;51992;53.528;49.474;2022-10-04T01:50:46;3.47;;;0.93;;
65387;SDS011;51992;53.528;49.474;2022-10-04T01:53:20;5.70;;;0.90;;
65387;SDS011;51992;53.528;49.474;2022-10-04T01:55:49;2.50;;;0.80;;
65387;SDS011;51992;53.528;49.474;2022-10-04T01:58:20;1.73;;;0.75;;
65387;SDS011;51992;53.528;49.474;2022-10-04T02:00:49;6.10;;;1.13;;
65387;SDS011;51992;53.528;49.474;2022-10-04T02:03:17;3.67;;;1.00;;
65387;SDS011;51992;53.528;49.474;2022-10-04T02:05:46;4.35;;;1.00;;
65387;SDS011;51992;53.528;49.474;2022-10-04T02:08:14;6.53;;;1.30;;
65387;SDS011;51992;53.528;49.474;2022-10-04T02:10:40;5.78;;;1.17;;
65387;SDS011;51992;53.528;49.474;2022-10-04T02:13:08;1.80;;;1.00;;
65387;SDS011;51992;53.528;49.474;2022-10-04T02:15:35;8.45;;;0.93;;
65387;SDS011;51992;53.528;49.474;2022-10-04T02:18:04;4.65;;;0.90;;
65387;SDS011;51992;53.528;49.474;2022-10-04T02:20:34;4.50;;;1.10;;
65387;SDS011;51992;53.528;49.474;2022-10-04T02:23:00;3.58;;;0.80;;
65387;SDS011;51992;53.528;49.474;2022-10-04T02:25:27;2.17;;;1.00;;
65387;SDS011;51992;53.528;49.474;2022-10-04T02:27:53;2.67;;;0.98;;
65387;SDS011;51992;53.528;49.474;2022-10-04T02:30:19;1.88;;;0.82;;
65387;SDS011;51992;53.528;49.474;2022-10-04T02:32:45;4.90;;;1.15;;
65387;SDS011;51992;53.528;49.474;2022-10-04T02:35:26;4.60;;;0.70;;
65387;SDS011;51992;53.528;49.474;2022-10-04T02:40:28;4.53;;;0.93;;
65387;SDS011;51992;53.528;49.474;2022-10-04T02:43:02;10.80;;;1.42;;
65387;SDS011;51992;53.528;49.474;2022-10-04T02:45:35;5.78;;;1.10;;
65387;SDS011;51992;53.528;49.474;2022-10-04T02:48:45;3.20;;;1.15;;
65387;SDS011;51992;53.528;49.474;2022-10-04T02:50:51;5.85;;;1.27;;
65387;SDS011;51992;53.528;49.474;2022-10-04T02:53:53;6.07;;;1.63;;
65387;SDS011;51992;53.528;49.474;2022-10-04T02:56:10;3.00;;;1.50;;
65387;SDS011;51992;53.528;49.474;2022-10-04T02:58:37;5.85;;;1.20;;
65387;SDS011;51992;53.528;49.474;2022-10-04T03:01:03;5.45;;;1.08;;
65387;SDS011;51992;53.528;49.474;2022-10-04T03:03:33;11.18;;;1.00;;
65387;SDS011;51992;53.528;49.474;2022-10-04T03:08:33;6.00;;;1.20;;
65387;SDS011;51992;53.528;49.474;2022-10-04T03:11:01;5.35;;;1.25;;
65387;SDS011;51992;53.528;49.474;2022-10-04T03:13:27;4.32;;;1.42;;
65387;SDS011;51992;53.528;49.474;2022-10-04T03:15:53;3.97;;;1.00;;
65387;SDS011;51992;53.528;49.474;2022-10-04T03:18:19;8.73;;;1.48;;
65387;SDS011;51992;53.528;49.474;2022-10-04T03:20:45;1.90;;;0.93;;
65387;SDS011;51992;53.528;49.474;2022-10-04T03:23:12;7.72;;;1.23;;
65387;SDS011;51992;53.528;49.474;2022-10-04T03:25:50;3.55;;;1.23;;
65387;SDS011;51992;53.528;49.474;2022-10-04T03:28:17;13.25;;;1.75;;
65387;SDS011;51992;53.528;49.474;2022-10-04T03:30:43;4.53;;;1.20;;
65387;SDS011;51992;53.528;49.474;2022-10-04T03:33:19;5.20;;;0.90;;
65387;SDS011;51992;53.528;49.474;2022-10-04T03:35:48;4.07;;;1.33;;
65387;SDS011;51992;53.528;49.474;2022-10-04T03:38:14;6.65;;;1.45;;
65387;SDS011;51992;53.528;49.474;2022-10-04T03:40:43;3.83;;;1.63;;
65387;SDS011;51992;53.528;49.474;2022-10-04T03:43:14;6.13;;;1.42;;
65387;SDS011;51992;53.528;49.474;2022-10-04T03:45:43;6.78;;;1.30;;
65387;SDS011;51992;53.528;49.474;2022-10-04T03:48:11;2.08;;;0.93;;
65387;SDS011;51992;53.528;49.474;2022-10-04T03:50:44;2.60;;;1.23;;
65387;SDS011;51992;53.528;49.474;2022-10-04T03:53:17;5.18;;;1.45;;
65387;SDS011;51992;53.528;49.474;2022-10-04T03:55:48;4.82;;;1.55;;
65387;SDS011;51992;53.528;49.474;2022-10-04T03:58:15;9.35;;;1.88;;
65387;SDS011;51992;53.528;49.474;2022-10-04T04:00:56;5.93;;;1.83;;
65387;SDS011;51992;53.528;49.474;2022-10-04T04:03:25;9.65;;;2.17;;
65387;SDS011;51992;53.528;49.474;2022-10-04T04:05:56;7.40;;;1.63;;
65387;SDS011;51992;53.528;49.474;2022-10-04T04:10:57;6.90;;;1.50;;
65387;SDS011;51992;53.528;49.474;2022-10-04T04:13:28;8.00;;;1.92;;
65387;SDS011;51992;53.528;49.474;2022-10-04T04:15:55;7.00;;;1.55;;
65387;SDS011;51992;53.528;49.474;2022-10-04T04:18:22;5.20;;;1.63;;
65387;SDS011;51992;53.528;49.474;2022-10-04T04:20:48;2.80;;;1.40;;
65387;SDS011;51992;53.528;49.474;2022-10-04T04:23:22;6.65;;;1.25;;
65387;SDS011;51992;53.528;49.474;2022-10-04T04:25:52;6.50;;;1.65;;
65387;SDS011;51992;53.528;49.474;2022-10-04T04:30:56;15.32;;;2.17;;
65387;SDS011;51992;53.528;49.474;2022-10-04T04:33:28;3.90;;;1.38;;
65387;SDS011;51992;53.528;49.474;2022-10-04T04:38:21;8.90;;;1.75;;
65387;SDS011;51992;53.528;49.474;2022-10-04T04:40:48;7.43;;;1.67;;
65387;SDS011;51992;53.528;49.474;2022-10-04T04:43:17;5.15;;;1.95;;
65387;SDS011;51992;53.528;49.474;2022-10-04T04:45:45;2.67;;;1.35;;
65387;SDS011;51992;53.528;49.474;2022-10-04T04:48:14;8.10;;;1.63;;
65387;SDS011;51992;53.528;49.474;2022-10-04T04:50:40;12.32;;;2.65;;
65387;SDS011;51992;53.528;49.474;2022-10-04T04:56:02;12.15;;;2.35;;
65387;SDS011;51992;53.528;49.474;2022-10-04T05:01:03;14.27;;;1.80;;
65387;SDS011;51992;53.528;49.474;2022-10-04T05:03:30;15.35;;;1.45;;
65387;SDS011;51992;53.528;49.474;2022-10-04T05:05:57;6.63;;;1.80;;
65387;SDS011;51992;53.528;49.474;2022-10-04T05:08:28;7.85;;;2.15;;
65387;SDS011;51992;53.528;49.474;2022-10-04T05:13:44;7.35;;;1.90;;
65387;SDS011;51992;53.528;49.474;2022-10-04T05:16:12;5.00;;;0.97;;
65387;SDS011;51992;53.528;49.474;2022-10-04T05:18:38;9.18;;;1.50;;
65387;SDS011;51992;53.528;49.474;2022-10-04T05:21:05;4.70;;;1.42;;
65387;SDS011;51992;53.528;49.474;2022-10-04T05:23:32;16.65;;;2.35;;
65387;SDS011;51992;53.528;49.474;2022-10-04T05:25:59;13.73;;;2.50;;
65387;SDS011;51992;53.528;49.474;2022-10-04T05:28:26;8.05;;;1.95;;
65387;SDS011;51992;53.528;49.474;2022-10-04T05:31:16;12.23;;;3.05;;
65387;SDS011;51992;53.528;49.474;2022-10-04T05:33:45;31.33;;;3.25;;
65387;SDS011;51992;53.528;49.474;2022-10-04T05:38:58;5.07;;;1.90;;
65387;SDS011;51992;53.528;49.474;2022-10-04T05:43:54;10.23;;;2.05;;
65387;SDS011;51992;53.528;49.474;2022-10-04T05:48:46;5.63;;;1.90;;
65387;SDS011;51992;53.528;49.474;2022-10-04T05:51:17;7.15;;;1.50;;
65387;SDS011;51992;53.528;49.474;2022-10-04T05:53:43;9.30;;;2.50;;
65387;SDS011;51992;53.528;49.474;2022-10-04T05:56:25;6.60;;;1.70;;
65387;SDS011;51992;53.528;49.474;2022-10-04T05:58:59;5.25;;;1.55;;
65387;SDS011;51992;53.528;49.474;2022-10-04T06:06:38;3.15;;;1.10;;
65387;SDS011;51992;53.528;49.474;2022-10-04T06:11:52;6.68;;;2.78;;
65387;SDS011;51992;53.528;49.474;2022-10-04T06:22:14;3.47;;;1.05;;
65387;SDS011;51992;53.528;49.474;2022-10-04T06:24:42;8.77;;;2.10;;
65387;SDS011;51992;53.528;49.474;2022-10-04T06:27:20;11.18;;;2.33;;
65387;SDS011;51992;53.528;49.474;2022-10-04T06:30:35;7.43;;;2.20;;
65387;SDS011;51992;53.528;49.474;2022-10-04T06:33:21;12.75;;;3.53;;
65387;SDS011;51992;53.528;49.474;2022-10-04T06:40:46;9.68;;;3.55;;
65387;SDS011;51992;53.528;49.474;2022-10-04T06:43:21;17.17;;;3.30;;
65387;SDS011;51992;53.528;49.474;2022-10-04T06:48:34;13.57;;;4.53;;
65387;SDS011;51992;53.528;49.474;2022-10-04T07:03:54;12.38;;;6.25;;
65387;SDS011;51992;53.528;49.474;2022-10-04T07:06:26;14.63;;;4.32;;
65387;SDS011;51992;53.528;49.474;2022-10-04T07:08:53;6.32;;;1.95;;
65387;SDS011;51992;53.528;49.474;2022-10-04T07:16:23;10.23;;;4.55;;
65387;SDS011;51992;53.528;49.474;2022-10-04T07:21:15;6.55;;;1.92;;
65387;SDS011;51992;53.528;49.474;2022-10-04T07:24:02;12.80;;;3.10;;
65387;SDS011;51992;53.528;49.474;2022-10-04T07:26:47;6.30;;;2.40;;
65387;SDS011;51992;53.528;49.474;2022-10-04T07:29:51;13.23;;;3.30;;
65387;SDS011;51992;53.528;49.474;2022-10-04T07:32:25;20.67;;;2.90;;
65387;SDS011;51992;53.528;49.474;2022-10-04T07:35:03;41.00;;;3.75;;
65387;SDS011;51992;53.528;49.474;2022-10-04T07:37:47;10.40;;;2.75;;
65387;SDS011;51992;53.528;49.474;2022-10-04T07:40:21;15.68;;;3.95;;
65387;SDS011;51992;53.528;49.474;2022-10-04T07:42:53;9.07;;;2.42;;
65387;SDS011;51992;53.528;49.474;2022-10-04T07:45:34;9.57;;;2.40;;
65387;SDS011;51992;53.528;49.474;2022-10-04T07:48:22;9.70;;;1.90;;
65387;SDS011;51992;53.528;49.474;2022-10-04T07:53:27;8.75;;;1.92;;
65387;SDS011;51992;53.528;49.474;2022-10-04T08:03:37;8.55;;;3.33;;
65387;SDS011;51992;53.528;49.474;2022-10-04T08:06:09;10.13;;;2.35;;
65387;SDS011;51992;53.528;49.474;2022-10-04T08:08:50;8.05;;;2.00;;
65387;SDS011;51992;53.528;49.474;2022-10-04T08:11:22;9.50;;;3.17;;
65387;SDS011;51992;53.528;49.474;2022-10-04T08:14:03;10.20;;;2.67;;
65387;SDS011;51992;53.528;49.474;2022-10-04T08:53:45;5.18;;;1.75;;
65387;SDS011;51992;53.528;49.474;2022-10-04T08:59:10;4.88;;;1.35;;
65387;SDS011;51992;53.528;49.474;2022-10-04T09:14:31;15.30;;;2.47;;
65387;SDS011;51992;53.528;49.474;2022-10-04T09:22:47;15.68;;;3.25;;
65387;SDS011;51992;53.528;49.474;2022-10-04T09:33:38;5.95;;;1.33;;
65387;SDS011;51992;53.528;49.474;2022-10-04T09:36:29;2.72;;;1.50;;
65387;SDS011;51992;53.528;49.474;2022-10-04T09:41:43;15.05;;;1.85;;
65387;SDS011;51992;53.528;49.474;2022-10-04T09:46:53;5.22;;;1.33;;
65387;SDS011;51992;53.528;49.474;2022-10-04T09:49:27;4.90;;;1.30;;
65387;SDS011;51992;53.528;49.474;2022-10-04T10:02:17;10.05;;;1.67;;
65387;SDS011;51992;53.528;49.474;2022-10-04T10:07:41;19.20;;;3.33;;
65387;SDS011;51992;53.528;49.474;2022-10-04T10:10:15;21.35;;;2.80;;
65387;SDS011;51992;53.528;49.474;2022-10-04T10:13:21;9.82;;;2.00;;
65387;SDS011;51992;53.528;49.474;2022-10-04T10:45:00;7.28;;;2.20;;
65387;SDS011;51992;53.528;49.474;2022-10-04T10:52:58;34.63;;;4.90;;
65387;SDS011;51992;53.528;49.474;2022-10-04T10:58:32;37.92;;;4.60;;
65387;SDS011;51992;53.528;49.474;2022-10-04T11:06:28;35.80;;;4.75;;
65387;SDS011;51992;53.528;49.474;2022-10-04T11:09:11;41.67;;;9.60;;
65387;SDS011;51992;53.528;49.474;2022-10-04T11:27:12;20.98;;;3.60;;
65387;SDS011;51992;53.528;49.474;2022-10-04T11:48:14;9.38;;;3.08;;
65387;SDS011;51992;53.528;49.474;2022-10-04T11:51:04;8.30;;;1.65;;
65387;SDS011;51992;53.528;49.474;2022-10-04T12:08:52;9.60;;;2.40;;
65387;SDS011;51992;53.528;49.474;2022-10-04T12:11:33;21.70;;;2.78;;
65387;SDS011;51992;53.528;49.474;2022-10-04T12:27:36;12.25;;;1.77;;
65387;SDS011;51992;53.528;49.474;2022-10-04T13:01:40;13.32;;;2.90;;
65387;SDS011;51992;53.528;49.474;2022-10-04T13:09:55;7.57;;;2.60;;
65387;SDS011;51992;53.528;49.474;2022-10-04T13:14:53;3.28;;;2.22;;
65387;SDS011;51992;53.528;49.474;2022-10-04T13:22:55;11.30;;;3.63;;
65387;SDS011;51992;53.528;49.474;2022-10-04T13:25:27;5.05;;;2.10;;
65387;SDS011;51992;53.528;49.474;2022-10-04T13:30:47;6.63;;;2.03;;
65387;SDS011;51992;53.528;49.474;2022-10-04T13:34:00;9.07;;;2.42;;
65387;SDS011;51992;53.528;49.474;2022-10-04T13:38:38;3.88;;;1.60;;
65387;SDS011;51992;53.528;49.474;2022-10-04T13:46:56;6.32;;;3.13;;
65387;SDS011;51992;53.528;49.474;2022-10-04T14:16:23;10.98;;;3.83;;
65387;SDS011;51992;53.528;49.474;2022-10-04T14:49:12;10.80;;;3.03;;
65387;SDS011;51992;53.528;49.474;2022-10-04T14:51:45;7.22;;;3.10;;
65387;SDS011;51992;53.528;49.474;2022-10-04T15:01:39;19.75;;;8.00;;
65387;SDS011;51992;53.528;49.474;2022-10-04T15:06:54;8.68;;;4.22;;
65387;SDS011;51992;53.528;49.474;2022-10-04T15:17:26;7.50;;;2.28;;
65387;SDS011;51992;53.528;49.474;2022-10-04T15:22:21;3.42;;;1.27;;
65387;SDS011;51992;53.528;49.474;2022-10-04T15:24:48;4.07;;;1.90;;
65387;SDS011;51992;53.528;49.474;2022-10-04T15:55:58;7.95;;;2.03;;
65387;SDS011;51992;53.528;49.474;2022-10-04T15:58:35;8.70;;;2.03;;
65387;SDS011;51992;53.528;49.474;2022-10-04T16:01:28;9.18;;;2.53;;
65387;SDS011;51992;53.528;49.474;2022-10-04T16:06:47;13.52;;;2.92;;
65387;SDS011;51992;53.528;49.474;2022-10-04T16:20:02;5.07;;;2.30;;
65387;SDS011;51992;53.528;49.474;2022-10-04T16:22:31;3.42;;;1.73;;
65387;SDS011;51992;53.528;49.474;2022-10-04T16:27:48;10.88;;;2.85;;
65387;SDS011;51992;53.528;49.474;2022-10-04T16:35:34;5.82;;;1.80;;
65387;SDS011;51992;53.528;49.474;2022-10-04T16:48:12;4.47;;;2.28;;
65387;SDS011;51992;53.528;49.474;2022-10-04T16:55:53;5.75;;;2.63;;
65387;SDS011;51992;53.528;49.474;2022-10-04T17:03:36;5.35;;;2.35;;
65387;SDS011;51992;53.528;49.474;2022-10-04T17:06:13;5.25;;;1.55;;
65387;SDS011;51992;53.528;49.474;2022-10-04T17:08:47;3.83;;;1.42;;
65387;SDS011;51992;53.528;49.474;2022-10-04T17:14:27;3.40;;;2.08;;
65387;SDS011;51992;53.528;49.474;2022-10-04T17:16:58;5.18;;;1.40;;
65387;SDS011;51992;53.528;49.474;2022-10-04T17:31:58;2.97;;;1.33;;
65387;SDS011;51992;53.528;49.474;2022-10-04T17:42:36;6.53;;;2.03;;
65387;SDS011;51992;53.528;49.474;2022-10-04T17:47:51;7.10;;;2.10;;
65387;SDS011;51992;53.528;49.474;2022-10-04T17:53:27;3.40;;;1.25;;
65387;SDS011;51992;53.528;49.474;2022-10-04T17:56:13;4.82;;;1.15;;
65387;SDS011;51992;53.528;49.474;2022-10-04T17:58:49;2.47;;;1.23;;
65387;SDS011;51992;53.528;49.474;2022-10-04T18:01:25;1.90;;;1.25;;
65387;SDS011;51992;53.528;49.474;2022-10-04T18:03:57;4.47;;;1.85;;
65387;SDS011;51992;53.528;49.474;2022-10-04T18:06:32;12.35;;;1.90;;
65387;SDS011;51992;53.528;49.474;2022-10-04T18:09:02;2.97;;;1.35;;
65387;SDS011;51992;53.528;49.474;2022-10-04T18:13:59;4.40;;;1.80;;
65387;SDS011;51992;53.528;49.474;2022-10-04T18:16:49;2.60;;;1.48;;
65387;SDS011;51992;53.528;49.474;2022-10-04T18:19:55;1.73;;;1.10;;
65387;SDS011;51992;53.528;49.474;2022-10-04T18:22:14;3.22;;;1.10;;
65387;SDS011;51992;53.528;49.474;2022-10-04T18:24:44;3.10;;;1.10;;
65387;SDS011;51992;53.528;49.474;2022-10-04T18:27:20;3.70;;;1.80;;
65387;SDS011;51992;53.528;49.474;2022-10-04T18:29:56;6.97;;;2.85;;
65387;SDS011;51992;53.528;49.474;2022-10-04T18:34:55;4.45;;;1.92;;
65387;SDS011;51992;53.528;49.474;2022-10-04T18:37:33;6.10;;;3.20;;
65387;SDS011;51992;53.528;49.474;2022-10-04T18:40:23;8.47;;;3.97;;
65387;SDS011;51992;53.528;49.474;2022-10-04T18:42:54;14.52;;;4.95;;
65387;SDS011;51992;53.528;49.474;2022-10-04T18:45:31;8.30;;;3.13;;
65387;SDS011;51992;53.528;49.474;2022-10-04T18:47:59;5.70;;;1.77;;
65387;SDS011;51992;53.528;49.474;2022-10-04T18:50:35;2.33;;;1.55;;
65387;SDS011;51992;53.528;49.474;2022-10-04T18:53:09;3.17;;;1.38;;
65387;SDS011;51992;53.528;49.474;2022-10-04T18:58:23;9.55;;;2.78;;
65387;SDS011;51992;53.528;49.474;2022-10-04T19:04:03;6.90;;;3.25;;
65387;SDS011;51992;53.528;49.474;2022-10-04T19:06:32;6.43;;;3.35;;
65387;SDS011;51992;53.528;49.474;2022-10-04T19:11:55;3.65;;;1.35;;
65387;SDS011;51992;53.528;49.474;2022-10-04T19:19:22;3.78;;;1.80;;
65387;SDS011;51992;53.528;49.474;2022-10-04T19:30:02;4.07;;;2.00;;
65387;SDS011;51992;53.528;49.474;2022-10-04T19:35:16;5.80;;;2.05;;
65387;SDS011;51992;53.528;49.474;2022-10-04T19:37:52;4.43;;;1.30;;
65387;SDS011;51992;53.528;49.474;2022-10-04T19:43:10;3.95;;;1.52;;
65387;SDS011;51992;53.528;49.474;2022-10-04T19:45:45;3.47;;;1.52;;
65387;SDS011;51992;53.528;49.474;2022-10-04T19:50:52;2.42;;;1.20;;
65387;SDS011;51992;53.528;49.474;2022-10-04T20:00:48;4.28;;;1.85;;
65387;SDS011;51992;53.528;49.474;2022-10-04T20:03:14;3.10;;;1.58;;
65387;SDS011;51992;53.528;49.474;2022-10-04T20:05:47;4.95;;;1.70;;
65387;SDS011;51992;53.528;49.474;2022-10-04T20:08:13;5.07;;;1.77;;
65387;SDS011;51992;53.528;49.474;2022-10-04T20:10:39;3.22;;;1.42;;
65387;SDS011;51992;53.528;49.474;2022-10-04T20:21:07;2.63;;;1.92;;
65387;SDS011;51992;53.528;49.474;2022-10-04T20:29:07;2.65;;;1.73;;
65387;SDS011;51992;53.528;49.474;2022-10-04T20:36:48;5.90;;;1.02;;
65387;SDS011;51992;53.528;49.474;2022-10-04T20:42:03;1.35;;;1.25;;
65387;SDS011;51992;53.528;49.474;2022-10-04T20:48:03;2.15;;;1.15;;
65387;SDS011;51992;53.528;49.474;2022-10-04T20:50:17;1.95;;;1.00;;
65387;SDS011;51992;53.528;49.474;2022-10-04T20:52:44;6.63;;;1.27;;
65387;SDS011;51992;53.528;49.474;2022-10-04T20:55:18;2.33;;;1.23;;
65387;SDS011;51992;53.528;49.474;2022-10-04T20:57:45;1.38;;;1.08;;
65387;SDS011;51992;53.528;49.474;2022-10-04T21:00:21;2.55;;;1.10;;
65387;SDS011;51992;53.528;49.474;2022-10-04T21:02:47;3.45;;;1.45;;
65387;SDS011;51992;53.528;49.474;2022-10-04T21:05:21;4.28;;;1.40;;
65387;SDS011;51992;53.528;49.474;2022-10-04T21:07:48;2.25;;;1.10;;
65387;SDS011;51992;53.528;49.474;2022-10-04T21:10:15;1.58;;;1.40;;
65387;SDS011;51992;53.528;49.474;2022-10-04T21:12:41;3.92;;;1.58;;
65387;SDS011;51992;53.528;49.474;2022-10-04T21:17:42;1.95;;;1.73;;
65387;SDS011;51992;53.528;49.474;2022-10-04T21:20:12;3.47;;;1.25;;
65387;SDS011;51992;53.528;49.474;2022-10-04T21:22:42;1.90;;;1.08;;
65387;SDS011;51992;53.528;49.474;2022-10-04T21:25:27;2.60;;;1.15;;
65387;SDS011;51992;53.528;49.474;2022-10-04T21:27:58;2.13;;;1.02;;
65387;SDS011;51992;53.528;49.474;2022-10-04T21:30:39;2.17;;;1.10;;
65387;SDS011;51992;53.528;49.474;2022-10-04T21:33:04;1.73;;;0.82;;
65387;SDS011;51992;53.528;49.474;2022-10-04T21:35:30;6.28;;;1.60;;
65387;SDS011;51992;53.528;49.474;2022-10-04T21:37:56;4.25;;;0.98;;
65387;SDS011;51992;53.528;49.474;2022-10-04T21:40:23;1.77;;;1.00;;
65387;SDS011;51992;53.528;49.474;2022-10-04T21:42:48;2.28;;;1.30;;
65387;SDS011;51992;53.528;49.474;2022-10-04T21:45:14;1.35;;;1.25;;
65387;SDS011;51992;53.528;49.474;2022-10-04T21:47:40;4.95;;;1.23;;
65387;SDS011;51992;53.528;49.474;2022-10-04T21:50:06;2.53;;;0.70;;
65387;SDS011;51992;53.528;49.474;2022-10-04T21:52:31;3.17;;;1.10;;
65387;SDS011;51992;53.528;49.474;2022-10-04T21:54:57;2.28;;;1.15;;
65387;SDS011;51992;53.528;49.474;2022-10-04T21:57:23;1.92;;;1.00;;
65387;SDS011;51992;53.528;49.474;2022-10-04T21:59:48;4.05;;;1.20;;
65387;SDS011;51992;53.528;49.474;2022-10-04T22:02:14;1.58;;;0.90;;
65387;SDS011;51992;53.528;49.474;2022-10-04T22:04:43;1.17;;;0.90;;
65387;SDS011;51992;53.528;49.474;2022-10-04T22:07:08;1.17;;;1.10;;
65387;SDS011;51992;53.528;49.474;2022-10-04T22:09:35;1.70;;;1.20;;
65387;SDS011;51992;53.528;49.474;2022-10-04T22:12:00;1.40;;;1.10;;
65387;SDS011;51992;53.528;49.474;2022-10-04T22:14:26;4.13;;;1.30;;
65387;SDS011;51992;53.528;49.474;2022-10-04T22:16:52;1.70;;;1.35;;
65387;SDS011;51992;53.528;49.474;2022-10-04T22:19:17;4.43;;;1.20;;
65387;SDS011;51992;53.528;49.474;2022-10-04T22:21:43;4.63;;;1.00;;
65387;SDS011;51992;53.528;49.474;2022-10-04T22:24:09;4.03;;;1.08;;
65387;SDS011;51992;53.528;49.474;2022-10-04T22:26:39;2.33;;;1.00;;
65387;SDS011;51992;53.528;49.474;2022-10-04T22:29:09;2.53;;;1.55;;
65387;SDS011;51992;53.528;49.474;2022-10-04T22:31:36;3.58;;;1.38;;
65387;SDS011;51992;53.528;49.474;2022-10-04T22:34:02;1.65;;;0.90;;
65387;SDS011;51992;53.528;49.474;2022-10-04T22:36:35;5.82;;;1.65;;
65387;SDS011;51992;53.528;49.474;2022-10-04T22:41:34;3.53;;;1.20;;
65387;SDS011;51992;53.528;49.474;2022-10-04T22:44:08;1.45;;;1.20;;
65387;SDS011;51992;53.528;49.474;2022-10-04T22:46:38;1.73;;;1.05;;
65387;SDS011;51992;53.528;49.474;2022-10-04T22:49:09;3.65;;;1.75;;
65387;SDS011;51992;53.528;49.474;2022-10-04T22:51:35;3.28;;;1.35;;
65387;SDS011;51992;53.528;49.474;2022-10-04T22:54:07;1.30;;;0.90;;
65387;SDS011;51992;53.528;49.474;2022-10-04T22:56:34;1.58;;;1.25;;
65387;SDS011;51992;53.528;49.474;2022-10-04T22:58:59;2.08;;;0.85;;
65387;SDS011;51992;53.528;49.474;2022-10-04T23:01:25;4.35;;;1.40;;
65387;SDS011;51992;53.528;49.474;2022-10-04T23:03:52;2.28;;;1.38;;
65387;SDS011;51992;53.528;49.474;2022-10-04T23:06:19;3.55;;;1.23;;
65387;SDS011;51992;53.528;49.474;2022-10-04T23:08:45;6.68;;;1.40;;
65387;SDS011;51992;53.528;49.474;2022-10-04T23:11:10;3.40;;;1.52;;
65387;SDS011;51992;53.528;49.474;2022-10-04T23:13:36;7.05;;;2.17;;
65387;SDS011;51992;53.528;49.474;2022-10-04T23:16:08;8.10;;;3.28;;
65387;SDS011;51992;53.528;49.474;2022-10-04T23:18:34;7.18;;;3.13;;
65387;SDS011;51992;53.528;49.474;2022-10-04T23:21:00;8.13;;;3.00;;
65387;SDS011;51992;53.528;49.474;2022-10-04T23:23:27;3.80;;;1.38;;
65387;SDS011;51992;53.528;49.474;2022-10-04T23:25:54;5.80;;;2.20;;
65387;SDS011;51992;53.528;49.474;2022-10-04T23:28:20;6.10;;;2.40;;
65387;SDS011;51992;53.528;49.474;2022-10-04T23:31:31;6.32;;;2.13;;
65387;SDS011;51992;53.528;49.474;2022-10-04T23:33:32;4.63;;;1.67;;
65387;SDS011;51992;53.528;49.474;2022-10-04T23:35:58;5.35;;;1.27;;
65387;SDS011;51992;53.528;49.474;2022-10-04T23:38:24;2.80;;;1.63;;
65387;SDS011;51992;53.528;49.474;2022-10-04T23:40:50;5.03;;;1.83;;
65387;SDS011;51992;53.528;49.474;2022-10-04T23:43:17;5.95;;;1.70;;
65387;SDS011;51992;53.528;49.474;2022-10-04T23:45:44;3.47;;;1.83;;
65387;SDS011;51992;53.528;49.474;2022-10-04T23:48:11;5.78;;;2.10;;
65387;SDS011;51992;53.528;49.474;2022-10-04T23:50:41;5.93;;;1.92;;
65387;SDS011;51992;53.528;49.474;2022-10-04T23:53:11;6.22;;;2.15;;
65387;SDS011;51992;53.528;49.474;2022-10-04T23:55:42;7.20;;;2.10;;
65387;SDS011;51992;53.528;49.474;2022-10-04T23:58:12;4.35;;;1.95;;
